sensor_id;sensor_type;location;lat;lon;timestamp;P1;durP1;ratioP1;P2;durP2;ratioP2
30647;SDS011;17683;53.360;9.736;2022-12-29T00:00:00;4.57;;;3.10;;
30647;SDS011;17683;53.360;9.736;2022-12-29T00:02:26;5.55;;;4.20;;
30647;SDS011;17683;53.360;9.736;2022-12-29T00:04:51;7.05;;;3.85;;
30647;SDS011;17683;53.360;9.736;2022-12-29T00:07:17;6.72;;;3.97;;
30647;SDS011;17683;53.360;9.736;2022-12-29T00:09:43;6.20;;;3.90;;
30647;SDS011;17683;53.360;9.736;2022-12-29T00:12:09;5.75;;;3.83;;
30647;SDS011;17683;53.360;9.736;2022-12-29T00:14:35;4.85;;;3.78;;
30647;SDS011;17683;53.360;9.736;2022-12-29T00:17:19;4.25;;;3.85;;
30647;SDS011;17683;53.360;9.736;2022-12-29T00:19:45;4.18;;;3.78;;
30647;SDS011;17683;53.360;9.736;2022-12-29T00:22:29;5.40;;;3.58;;
30647;SDS011;17683;53.360;9.736;2022-12-29T00:25:13;4.47;;;4.03;;
30647;SDS011;17683;53.360;9.736;2022-12-29T00:27:58;6.03;;;3.80;;
30647;SDS011;17683;53.360;9.736;2022-12-29T00:30:43;5.03;;;3.78;;
30647;SDS011;17683;53.360;9.736;2022-12-29T00:33:31;5.72;;;3.78;;
30647;SDS011;17683;53.360;9.736;2022-12-29T00:38:46;4.93;;;3.63;;
30647;SDS011;17683;53.360;9.736;2022-12-29T00:41:38;5.90;;;4.03;;
30647;SDS011;17683;53.360;9.736;2022-12-29T00:44:22;3.80;;;3.50;;
30647;SDS011;17683;53.360;9.736;2022-12-29T00:46:48;3.97;;;3.58;;
30647;SDS011;17683;53.360;9.736;2022-12-29T00:49:14;5.40;;;3.85;;
30647;SDS011;17683;53.360;9.736;2022-12-29T00:51:59;4.72;;;3.38;;
30647;SDS011;17683;53.360;9.736;2022-12-29T00:54:28;4.40;;;4.00;;
30647;SDS011;17683;53.360;9.736;2022-12-29T00:56:55;6.10;;;3.75;;
30647;SDS011;17683;53.360;9.736;2022-12-29T00:59:21;7.55;;;3.72;;
30647;SDS011;17683;53.360;9.736;2022-12-29T01:01:48;4.10;;;3.70;;
30647;SDS011;17683;53.360;9.736;2022-12-29T01:04:15;4.32;;;3.65;;
30647;SDS011;17683;53.360;9.736;2022-12-29T01:06:41;5.45;;;3.85;;
30647;SDS011;17683;53.360;9.736;2022-12-29T01:09:07;4.70;;;3.58;;
30647;SDS011;17683;53.360;9.736;2022-12-29T01:11:51;5.50;;;3.58;;
30647;SDS011;17683;53.360;9.736;2022-12-29T01:14:17;4.75;;;3.75;;
30647;SDS011;17683;53.360;9.736;2022-12-29T01:16:44;5.00;;;3.47;;
30647;SDS011;17683;53.360;9.736;2022-12-29T01:19:10;7.45;;;4.35;;
30647;SDS011;17683;53.360;9.736;2022-12-29T01:21:36;5.90;;;3.85;;
30647;SDS011;17683;53.360;9.736;2022-12-29T01:24:02;4.53;;;3.67;;
30647;SDS011;17683;53.360;9.736;2022-12-29T01:26:28;4.25;;;3.72;;
30647;SDS011;17683;53.360;9.736;2022-12-29T01:28:54;5.15;;;3.78;;
30647;SDS011;17683;53.360;9.736;2022-12-29T01:31:19;5.57;;;4.57;;
30647;SDS011;17683;53.360;9.736;2022-12-29T01:33:45;4.82;;;4.18;;
30647;SDS011;17683;53.360;9.736;2022-12-29T01:36:12;4.88;;;4.35;;
30647;SDS011;17683;53.360;9.736;2022-12-29T01:38:40;5.75;;;4.93;;
30647;SDS011;17683;53.360;9.736;2022-12-29T01:41:07;4.50;;;4.10;;
30647;SDS011;17683;53.360;9.736;2022-12-29T01:46:34;4.72;;;4.22;;
30647;SDS011;17683;53.360;9.736;2022-12-29T01:54:22;5.43;;;4.00;;
30647;SDS011;17683;53.360;9.736;2022-12-29T01:56:51;7.28;;;4.10;;
30647;SDS011;17683;53.360;9.736;2022-12-29T01:59:21;4.95;;;3.70;;
30647;SDS011;17683;53.360;9.736;2022-12-29T02:01:54;4.32;;;3.70;;
30647;SDS011;17683;53.360;9.736;2022-12-29T02:04:20;4.97;;;3.88;;
30647;SDS011;17683;53.360;9.736;2022-12-29T02:06:55;4.38;;;3.85;;
30647;SDS011;17683;53.360;9.736;2022-12-29T02:09:25;7.85;;;4.32;;
30647;SDS011;17683;53.360;9.736;2022-12-29T02:11:51;4.40;;;4.00;;
30647;SDS011;17683;53.360;9.736;2022-12-29T02:14:18;7.45;;;4.05;;
30647;SDS011;17683;53.360;9.736;2022-12-29T02:25:40;5.05;;;4.00;;
30647;SDS011;17683;53.360;9.736;2022-12-29T02:37:15;5.72;;;3.58;;
30647;SDS011;17683;53.360;9.736;2022-12-29T02:42:42;4.82;;;3.72;;
30647;SDS011;17683;53.360;9.736;2022-12-29T02:45:20;3.65;;;3.17;;
30647;SDS011;17683;53.360;9.736;2022-12-29T02:50:43;3.88;;;3.58;;
30647;SDS011;17683;53.360;9.736;2022-12-29T02:53:18;3.50;;;3.20;;
30647;SDS011;17683;53.360;9.736;2022-12-29T02:56:05;4.28;;;3.35;;
30647;SDS011;17683;53.360;9.736;2022-12-29T02:58:31;3.65;;;3.22;;
30647;SDS011;17683;53.360;9.736;2022-12-29T03:06:43;3.20;;;2.90;;
30647;SDS011;17683;53.360;9.736;2022-12-29T03:12:12;4.22;;;3.17;;
30647;SDS011;17683;53.360;9.736;2022-12-29T03:14:44;4.00;;;3.35;;
30647;SDS011;17683;53.360;9.736;2022-12-29T03:18:10;3.50;;;3.20;;
30647;SDS011;17683;53.360;9.736;2022-12-29T03:20:49;3.30;;;2.47;;
30647;SDS011;17683;53.360;9.736;2022-12-29T03:23:21;3.97;;;3.20;;
30647;SDS011;17683;53.360;9.736;2022-12-29T03:25:51;3.22;;;2.92;;
30647;SDS011;17683;53.360;9.736;2022-12-29T03:28:24;3.83;;;2.97;;
30647;SDS011;17683;53.360;9.736;2022-12-29T03:33:23;4.00;;;3.15;;
30647;SDS011;17683;53.360;9.736;2022-12-29T03:35:53;3.88;;;3.47;;
30647;SDS011;17683;53.360;9.736;2022-12-29T03:38:27;3.75;;;2.45;;
30647;SDS011;17683;53.360;9.736;2022-12-29T03:41:01;2.85;;;2.58;;
30647;SDS011;17683;53.360;9.736;2022-12-29T03:43:32;2.78;;;2.58;;
30647;SDS011;17683;53.360;9.736;2022-12-29T03:45:58;2.70;;;2.50;;
30647;SDS011;17683;53.360;9.736;2022-12-29T03:48:24;3.83;;;2.40;;
30647;SDS011;17683;53.360;9.736;2022-12-29T03:50:49;2.90;;;2.70;;
30647;SDS011;17683;53.360;9.736;2022-12-29T03:53:15;2.65;;;2.42;;
30647;SDS011;17683;53.360;9.736;2022-12-29T03:55:41;4.60;;;2.30;;
30647;SDS011;17683;53.360;9.736;2022-12-29T03:58:07;2.50;;;2.22;;
30647;SDS011;17683;53.360;9.736;2022-12-29T04:00:32;2.70;;;2.10;;
30647;SDS011;17683;53.360;9.736;2022-12-29T04:02:58;2.00;;;1.90;;
30647;SDS011;17683;53.360;9.736;2022-12-29T04:05:24;2.05;;;1.85;;
30647;SDS011;17683;53.360;9.736;2022-12-29T04:07:49;3.30;;;1.70;;
30647;SDS011;17683;53.360;9.736;2022-12-29T04:10:15;1.67;;;1.58;;
30647;SDS011;17683;53.360;9.736;2022-12-29T04:12:41;1.55;;;1.45;;
30647;SDS011;17683;53.360;9.736;2022-12-29T04:15:07;1.67;;;1.58;;
30647;SDS011;17683;53.360;9.736;2022-12-29T04:17:33;1.92;;;1.63;;
30647;SDS011;17683;53.360;9.736;2022-12-29T04:19:59;2.03;;;1.65;;
30647;SDS011;17683;53.360;9.736;2022-12-29T04:22:43;1.80;;;1.70;;
30647;SDS011;17683;53.360;9.736;2022-12-29T04:25:09;2.50;;;1.63;;
30647;SDS011;17683;53.360;9.736;2022-12-29T04:27:35;1.85;;;1.65;;
30647;SDS011;17683;53.360;9.736;2022-12-29T04:30:00;1.65;;;1.50;;
30647;SDS011;17683;53.360;9.736;2022-12-29T04:32:26;1.80;;;1.50;;
30647;SDS011;17683;53.360;9.736;2022-12-29T04:34:52;3.90;;;1.45;;
30647;SDS011;17683;53.360;9.736;2022-12-29T04:37:18;4.28;;;1.50;;
30647;SDS011;17683;53.360;9.736;2022-12-29T04:39:43;1.60;;;1.30;;
30647;SDS011;17683;53.360;9.736;2022-12-29T04:42:09;1.67;;;1.23;;
30647;SDS011;17683;53.360;9.736;2022-12-29T04:44:35;1.15;;;1.08;;
30647;SDS011;17683;53.360;9.736;2022-12-29T04:47:00;2.13;;;1.15;;
30647;SDS011;17683;53.360;9.736;2022-12-29T04:49:26;1.65;;;1.55;;
30647;SDS011;17683;53.360;9.736;2022-12-29T04:51:52;2.17;;;1.60;;
30647;SDS011;17683;53.360;9.736;2022-12-29T04:54:17;1.55;;;1.20;;
30647;SDS011;17683;53.360;9.736;2022-12-29T04:56:43;2.90;;;1.25;;
30647;SDS011;17683;53.360;9.736;2022-12-29T04:59:09;2.70;;;1.45;;
30647;SDS011;17683;53.360;9.736;2022-12-29T05:01:34;1.90;;;1.60;;
30647;SDS011;17683;53.360;9.736;2022-12-29T05:04:00;1.90;;;1.70;;
30647;SDS011;17683;53.360;9.736;2022-12-29T05:06:26;1.83;;;1.60;;
30647;SDS011;17683;53.360;9.736;2022-12-29T05:08:51;2.53;;;1.48;;
30647;SDS011;17683;53.360;9.736;2022-12-29T05:11:17;2.15;;;1.63;;
30647;SDS011;17683;53.360;9.736;2022-12-29T05:13:46;1.60;;;1.50;;
30647;SDS011;17683;53.360;9.736;2022-12-29T05:16:12;4.85;;;1.80;;
30647;SDS011;17683;53.360;9.736;2022-12-29T05:18:38;2.92;;;1.45;;
30647;SDS011;17683;53.360;9.736;2022-12-29T05:21:03;1.63;;;1.45;;
30647;SDS011;17683;53.360;9.736;2022-12-29T05:23:29;3.40;;;1.58;;
30647;SDS011;17683;53.360;9.736;2022-12-29T05:25:55;1.75;;;1.65;;
30647;SDS011;17683;53.360;9.736;2022-12-29T05:28:21;1.67;;;1.30;;
30647;SDS011;17683;53.360;9.736;2022-12-29T05:30:49;2.40;;;1.40;;
30647;SDS011;17683;53.360;9.736;2022-12-29T05:33:16;1.92;;;1.70;;
30647;SDS011;17683;53.360;9.736;2022-12-29T05:35:43;1.35;;;1.20;;
30647;SDS011;17683;53.360;9.736;2022-12-29T05:38:09;1.75;;;1.50;;
30647;SDS011;17683;53.360;9.736;2022-12-29T05:40:35;3.05;;;1.70;;
30647;SDS011;17683;53.360;9.736;2022-12-29T05:43:01;1.67;;;1.42;;
30647;SDS011;17683;53.360;9.736;2022-12-29T05:45:26;3.17;;;1.58;;
30647;SDS011;17683;53.360;9.736;2022-12-29T05:47:52;3.40;;;1.65;;
30647;SDS011;17683;53.360;9.736;2022-12-29T05:50:18;1.38;;;1.27;;
30647;SDS011;17683;53.360;9.736;2022-12-29T05:52:44;1.92;;;1.38;;
30647;SDS011;17683;53.360;9.736;2022-12-29T05:55:10;1.90;;;1.60;;
30647;SDS011;17683;53.360;9.736;2022-12-29T05:57:35;5.05;;;1.38;;
30647;SDS011;17683;53.360;9.736;2022-12-29T06:00:02;2.90;;;1.83;;
30647;SDS011;17683;53.360;9.736;2022-12-29T06:02:29;1.98;;;1.50;;
30647;SDS011;17683;53.360;9.736;2022-12-29T06:04:55;10.98;;;2.20;;
30647;SDS011;17683;53.360;9.736;2022-12-29T06:07:20;1.92;;;1.75;;
30647;SDS011;17683;53.360;9.736;2022-12-29T06:09:46;1.67;;;1.50;;
30647;SDS011;17683;53.360;9.736;2022-12-29T06:12:12;1.92;;;1.48;;
30647;SDS011;17683;53.360;9.736;2022-12-29T06:14:37;3.20;;;1.55;;
30647;SDS011;17683;53.360;9.736;2022-12-29T06:17:03;1.23;;;1.08;;
30647;SDS011;17683;53.360;9.736;2022-12-29T06:19:29;1.52;;;1.05;;
30647;SDS011;17683;53.360;9.736;2022-12-29T06:21:54;3.30;;;0.85;;
30647;SDS011;17683;53.360;9.736;2022-12-29T06:24:20;2.88;;;0.82;;
30647;SDS011;17683;53.360;9.736;2022-12-29T06:26:46;0.88;;;0.70;;
30647;SDS011;17683;53.360;9.736;2022-12-29T06:29:12;0.60;;;0.60;;
30647;SDS011;17683;53.360;9.736;2022-12-29T06:31:41;1.08;;;0.77;;
30647;SDS011;17683;53.360;9.736;2022-12-29T06:34:08;1.30;;;0.80;;
30647;SDS011;17683;53.360;9.736;2022-12-29T06:36:34;1.40;;;1.30;;
30647;SDS011;17683;53.360;9.736;2022-12-29T06:38:59;1.20;;;1.05;;
30647;SDS011;17683;53.360;9.736;2022-12-29T06:41:25;4.97;;;1.95;;
30647;SDS011;17683;53.360;9.736;2022-12-29T06:43:51;4.38;;;2.33;;
30647;SDS011;17683;53.360;9.736;2022-12-29T06:46:17;4.20;;;2.42;;
30647;SDS011;17683;53.360;9.736;2022-12-29T06:48:42;3.63;;;2.38;;
30647;SDS011;17683;53.360;9.736;2022-12-29T06:51:08;2.45;;;2.10;;
30647;SDS011;17683;53.360;9.736;2022-12-29T06:53:34;2.92;;;2.35;;
30647;SDS011;17683;53.360;9.736;2022-12-29T06:55:59;4.18;;;2.13;;
30647;SDS011;17683;53.360;9.736;2022-12-29T06:58:25;2.95;;;2.45;;
30647;SDS011;17683;53.360;9.736;2022-12-29T07:00:51;2.60;;;2.40;;
30647;SDS011;17683;53.360;9.736;2022-12-29T07:03:16;2.60;;;2.00;;
30647;SDS011;17683;53.360;9.736;2022-12-29T07:05:42;3.35;;;1.85;;
30647;SDS011;17683;53.360;9.736;2022-12-29T07:08:08;2.35;;;2.20;;
30647;SDS011;17683;53.360;9.736;2022-12-29T07:10:34;2.58;;;2.38;;
30647;SDS011;17683;53.360;9.736;2022-12-29T07:12:59;2.47;;;2.28;;
30647;SDS011;17683;53.360;9.736;2022-12-29T07:15:25;3.28;;;2.15;;
30647;SDS011;17683;53.360;9.736;2022-12-29T07:17:51;5.05;;;2.17;;
30647;SDS011;17683;53.360;9.736;2022-12-29T07:20:16;2.75;;;2.40;;
30647;SDS011;17683;53.360;9.736;2022-12-29T07:22:43;3.72;;;2.25;;
30647;SDS011;17683;53.360;9.736;2022-12-29T07:25:08;7.88;;;2.70;;
30647;SDS011;17683;53.360;9.736;2022-12-29T07:27:34;3.25;;;2.50;;
30647;SDS011;17683;53.360;9.736;2022-12-29T07:30:00;3.13;;;2.40;;
30647;SDS011;17683;53.360;9.736;2022-12-29T07:32:25;2.33;;;2.13;;
30647;SDS011;17683;53.360;9.736;2022-12-29T07:34:51;2.40;;;2.20;;
30647;SDS011;17683;53.360;9.736;2022-12-29T07:37:17;3.17;;;2.40;;
30647;SDS011;17683;53.360;9.736;2022-12-29T07:39:43;3.38;;;2.10;;
30647;SDS011;17683;53.360;9.736;2022-12-29T07:42:09;2.58;;;1.70;;
30647;SDS011;17683;53.360;9.736;2022-12-29T07:44:35;2.95;;;1.75;;
30647;SDS011;17683;53.360;9.736;2022-12-29T07:47:01;1.60;;;1.30;;
30647;SDS011;17683;53.360;9.736;2022-12-29T07:49:27;3.67;;;1.80;;
30647;SDS011;17683;53.360;9.736;2022-12-29T07:51:53;2.03;;;1.70;;
30647;SDS011;17683;53.360;9.736;2022-12-29T07:54:19;1.95;;;1.77;;
30647;SDS011;17683;53.360;9.736;2022-12-29T07:56:45;2.17;;;1.50;;
30647;SDS011;17683;53.360;9.736;2022-12-29T07:59:11;3.47;;;1.75;;
30647;SDS011;17683;53.360;9.736;2022-12-29T08:01:37;6.65;;;2.03;;
30647;SDS011;17683;53.360;9.736;2022-12-29T08:04:03;2.65;;;1.85;;
30647;SDS011;17683;53.360;9.736;2022-12-29T08:06:29;4.32;;;1.60;;
30647;SDS011;17683;53.360;9.736;2022-12-29T08:08:56;2.38;;;1.50;;
30647;SDS011;17683;53.360;9.736;2022-12-29T08:11:22;4.13;;;1.38;;
30647;SDS011;17683;53.360;9.736;2022-12-29T08:13:48;2.10;;;1.13;;
30647;SDS011;17683;53.360;9.736;2022-12-29T08:16:14;2.97;;;1.20;;
30647;SDS011;17683;53.360;9.736;2022-12-29T08:18:39;2.28;;;1.20;;
30647;SDS011;17683;53.360;9.736;2022-12-29T08:21:05;1.42;;;1.20;;
30647;SDS011;17683;53.360;9.736;2022-12-29T08:23:31;1.88;;;1.10;;
30647;SDS011;17683;53.360;9.736;2022-12-29T08:25:58;4.13;;;1.55;;
30647;SDS011;17683;53.360;9.736;2022-12-29T08:28:24;2.42;;;1.20;;
30647;SDS011;17683;53.360;9.736;2022-12-29T08:30:50;3.72;;;1.02;;
30647;SDS011;17683;53.360;9.736;2022-12-29T08:33:16;3.15;;;1.17;;
30647;SDS011;17683;53.360;9.736;2022-12-29T08:35:42;2.35;;;1.00;;
30647;SDS011;17683;53.360;9.736;2022-12-29T08:38:08;2.65;;;0.98;;
30647;SDS011;17683;53.360;9.736;2022-12-29T08:40:36;1.23;;;0.95;;
30647;SDS011;17683;53.360;9.736;2022-12-29T08:43:02;2.38;;;0.82;;
30647;SDS011;17683;53.360;9.736;2022-12-29T08:45:27;3.63;;;1.38;;
30647;SDS011;17683;53.360;9.736;2022-12-29T08:47:53;2.83;;;1.10;;
30647;SDS011;17683;53.360;9.736;2022-12-29T08:50:19;2.75;;;1.23;;
30647;SDS011;17683;53.360;9.736;2022-12-29T08:52:45;3.13;;;0.70;;
30647;SDS011;17683;53.360;9.736;2022-12-29T08:55:10;2.97;;;0.88;;
30647;SDS011;17683;53.360;9.736;2022-12-29T08:57:36;1.55;;;0.90;;
30647;SDS011;17683;53.360;9.736;2022-12-29T09:00:03;1.90;;;0.90;;
30647;SDS011;17683;53.360;9.736;2022-12-29T09:02:30;3.97;;;1.20;;
30647;SDS011;17683;53.360;9.736;2022-12-29T09:04:55;1.88;;;0.80;;
30647;SDS011;17683;53.360;9.736;2022-12-29T09:07:22;1.20;;;0.70;;
30647;SDS011;17683;53.360;9.736;2022-12-29T09:09:49;4.88;;;0.80;;
30647;SDS011;17683;53.360;9.736;2022-12-29T09:12:15;4.05;;;1.27;;
30647;SDS011;17683;53.360;9.736;2022-12-29T09:14:41;2.00;;;0.85;;
30647;SDS011;17683;53.360;9.736;2022-12-29T09:17:08;3.08;;;0.75;;
30647;SDS011;17683;53.360;9.736;2022-12-29T09:19:52;6.30;;;1.30;;
30647;SDS011;17683;53.360;9.736;2022-12-29T09:22:18;6.57;;;1.10;;
30647;SDS011;17683;53.360;9.736;2022-12-29T09:24:44;5.50;;;0.98;;
30647;SDS011;17683;53.360;9.736;2022-12-29T09:27:09;5.15;;;0.95;;
30647;SDS011;17683;53.360;9.736;2022-12-29T09:29:35;2.30;;;0.98;;
30647;SDS011;17683;53.360;9.736;2022-12-29T09:32:01;6.90;;;1.73;;
30647;SDS011;17683;53.360;9.736;2022-12-29T09:34:27;5.55;;;1.20;;
30647;SDS011;17683;53.360;9.736;2022-12-29T09:36:52;8.65;;;1.30;;
30647;SDS011;17683;53.360;9.736;2022-12-29T09:39:18;2.85;;;0.88;;
30647;SDS011;17683;53.360;9.736;2022-12-29T09:45:15;5.90;;;1.10;;
30647;SDS011;17683;53.360;9.736;2022-12-29T09:47:45;15.73;;;2.03;;
30647;SDS011;17683;53.360;9.736;2022-12-29T09:50:19;4.78;;;1.35;;
30647;SDS011;17683;53.360;9.736;2022-12-29T09:52:58;5.80;;;0.98;;
30647;SDS011;17683;53.360;9.736;2022-12-29T09:55:37;5.70;;;1.10;;
30647;SDS011;17683;53.360;9.736;2022-12-29T09:58:10;4.15;;;1.00;;
30647;SDS011;17683;53.360;9.736;2022-12-29T10:09:59;6.10;;;1.10;;
30647;SDS011;17683;53.360;9.736;2022-12-29T10:18:30;3.90;;;1.38;;
30647;SDS011;17683;53.360;9.736;2022-12-29T10:21:16;10.35;;;1.40;;
30647;SDS011;17683;53.360;9.736;2022-12-29T10:24:02;3.50;;;1.67;;
30647;SDS011;17683;53.360;9.736;2022-12-29T10:26:36;6.45;;;1.80;;
30647;SDS011;17683;53.360;9.736;2022-12-29T10:29:12;5.25;;;1.42;;
30647;SDS011;17683;53.360;9.736;2022-12-29T10:32:02;4.72;;;1.23;;
30647;SDS011;17683;53.360;9.736;2022-12-29T10:34:37;5.53;;;1.35;;
30647;SDS011;17683;53.360;9.736;2022-12-29T10:39:41;8.73;;;1.40;;
30647;SDS011;17683;53.360;9.736;2022-12-29T10:42:28;5.45;;;1.48;;
30647;SDS011;17683;53.360;9.736;2022-12-29T10:45:02;7.45;;;1.10;;
30647;SDS011;17683;53.360;9.736;2022-12-29T10:47:32;6.03;;;1.23;;
30647;SDS011;17683;53.360;9.736;2022-12-29T10:50:03;8.13;;;1.42;;
30647;SDS011;17683;53.360;9.736;2022-12-29T10:52:30;5.45;;;1.10;;
30647;SDS011;17683;53.360;9.736;2022-12-29T10:55:00;4.50;;;1.17;;
30647;SDS011;17683;53.360;9.736;2022-12-29T10:57:36;4.38;;;0.70;;
30647;SDS011;17683;53.360;9.736;2022-12-29T11:00:15;4.10;;;0.90;;
30647;SDS011;17683;53.360;9.736;2022-12-29T11:08:03;4.60;;;1.30;;
30647;SDS011;17683;53.360;9.736;2022-12-29T11:10:39;5.22;;;1.00;;
30647;SDS011;17683;53.360;9.736;2022-12-29T11:15:42;6.45;;;1.17;;
30647;SDS011;17683;53.360;9.736;2022-12-29T11:18:20;5.35;;;1.65;;
30647;SDS011;17683;53.360;9.736;2022-12-29T11:20:56;5.50;;;1.10;;
30647;SDS011;17683;53.360;9.736;2022-12-29T11:26:11;4.82;;;1.25;;
30647;SDS011;17683;53.360;9.736;2022-12-29T11:28:44;3.65;;;1.15;;
30647;SDS011;17683;53.360;9.736;2022-12-29T11:31:15;4.68;;;1.08;;
30647;SDS011;17683;53.360;9.736;2022-12-29T11:33:42;7.47;;;1.05;;
30647;SDS011;17683;53.360;9.736;2022-12-29T11:36:19;8.93;;;1.45;;
30647;SDS011;17683;53.360;9.736;2022-12-29T11:38:51;3.25;;;0.93;;
30647;SDS011;17683;53.360;9.736;2022-12-29T11:41:39;3.13;;;0.93;;
30647;SDS011;17683;53.360;9.736;2022-12-29T11:44:04;4.43;;;1.08;;
30647;SDS011;17683;53.360;9.736;2022-12-29T11:46:34;3.17;;;0.80;;
30647;SDS011;17683;53.360;9.736;2022-12-29T11:49:03;5.70;;;1.00;;
30647;SDS011;17683;53.360;9.736;2022-12-29T11:51:48;5.40;;;0.98;;
30647;SDS011;17683;53.360;9.736;2022-12-29T11:54:23;5.80;;;1.17;;
30647;SDS011;17683;53.360;9.736;2022-12-29T11:56:55;4.72;;;1.23;;
30647;SDS011;17683;53.360;9.736;2022-12-29T12:01:52;3.38;;;0.98;;
30647;SDS011;17683;53.360;9.736;2022-12-29T12:04:21;2.45;;;1.25;;
30647;SDS011;17683;53.360;9.736;2022-12-29T12:07:04;6.03;;;1.33;;
30647;SDS011;17683;53.360;9.736;2022-12-29T12:09:42;8.32;;;1.70;;
30647;SDS011;17683;53.360;9.736;2022-12-29T12:12:32;5.57;;;0.95;;
30647;SDS011;17683;53.360;9.736;2022-12-29T12:15:04;7.30;;;1.45;;
30647;SDS011;17683;53.360;9.736;2022-12-29T12:17:38;4.68;;;1.45;;
30647;SDS011;17683;53.360;9.736;2022-12-29T12:26:11;9.43;;;1.90;;
30647;SDS011;17683;53.360;9.736;2022-12-29T12:34:04;7.25;;;1.55;;
30647;SDS011;17683;53.360;9.736;2022-12-29T12:50:30;10.18;;;1.77;;
30647;SDS011;17683;53.360;9.736;2022-12-29T13:01:07;7.88;;;1.50;;
30647;SDS011;17683;53.360;9.736;2022-12-29T13:06:36;9.07;;;2.00;;
30647;SDS011;17683;53.360;9.736;2022-12-29T13:09:22;5.82;;;1.50;;
30647;SDS011;17683;53.360;9.736;2022-12-29T13:23:04;8.43;;;1.23;;
30647;SDS011;17683;53.360;9.736;2022-12-29T13:31:19;9.35;;;1.30;;
30647;SDS011;17683;53.360;9.736;2022-12-29T13:36:45;7.15;;;1.48;;
30647;SDS011;17683;53.360;9.736;2022-12-29T13:41:53;5.20;;;1.27;;
30647;SDS011;17683;53.360;9.736;2022-12-29T13:47:27;5.60;;;1.60;;
30647;SDS011;17683;53.360;9.736;2022-12-29T13:50:02;5.75;;;1.77;;
30647;SDS011;17683;53.360;9.736;2022-12-29T14:00:30;8.77;;;1.65;;
30647;SDS011;17683;53.360;9.736;2022-12-29T14:03:16;6.30;;;2.05;;
30647;SDS011;17683;53.360;9.736;2022-12-29T14:06:15;6.05;;;1.27;;
30647;SDS011;17683;53.360;9.736;2022-12-29T14:08:41;6.85;;;1.50;;
30647;SDS011;17683;53.360;9.736;2022-12-29T14:11:09;4.75;;;1.63;;
30647;SDS011;17683;53.360;9.736;2022-12-29T14:13:40;7.80;;;1.60;;
30647;SDS011;17683;53.360;9.736;2022-12-29T14:16:10;5.45;;;1.40;;
30647;SDS011;17683;53.360;9.736;2022-12-29T14:18:55;5.55;;;1.35;;
30647;SDS011;17683;53.360;9.736;2022-12-29T14:21:29;4.20;;;1.33;;
30647;SDS011;17683;53.360;9.736;2022-12-29T14:24:02;9.45;;;1.45;;
30647;SDS011;17683;53.360;9.736;2022-12-29T14:32:36;9.68;;;1.73;;
30647;SDS011;17683;53.360;9.736;2022-12-29T14:35:00;8.57;;;2.28;;
30647;SDS011;17683;53.360;9.736;2022-12-29T14:38:14;7.20;;;1.40;;
30647;SDS011;17683;53.360;9.736;2022-12-29T14:40:46;6.57;;;1.77;;
30647;SDS011;17683;53.360;9.736;2022-12-29T14:43:13;4.22;;;1.52;;
30647;SDS011;17683;53.360;9.736;2022-12-29T14:45:55;7.28;;;2.70;;
30647;SDS011;17683;53.360;9.736;2022-12-29T14:50:55;7.93;;;1.13;;
30647;SDS011;17683;53.360;9.736;2022-12-29T14:56:09;6.15;;;1.48;;
30647;SDS011;17683;53.360;9.736;2022-12-29T15:04:03;6.50;;;1.77;;
30647;SDS011;17683;53.360;9.736;2022-12-29T15:06:40;5.78;;;1.58;;
30647;SDS011;17683;53.360;9.736;2022-12-29T15:09:12;6.45;;;1.60;;
30647;SDS011;17683;53.360;9.736;2022-12-29T15:12:04;5.35;;;1.60;;
30647;SDS011;17683;53.360;9.736;2022-12-29T15:15:28;6.65;;;1.73;;
30647;SDS011;17683;53.360;9.736;2022-12-29T15:17:46;6.57;;;2.00;;
30647;SDS011;17683;53.360;9.736;2022-12-29T15:22:56;7.03;;;1.70;;
30647;SDS011;17683;53.360;9.736;2022-12-29T15:26:01;8.38;;;1.80;;
30647;SDS011;17683;53.360;9.736;2022-12-29T15:31:12;6.53;;;1.58;;
30647;SDS011;17683;53.360;9.736;2022-12-29T15:33:41;5.32;;;2.00;;
30647;SDS011;17683;53.360;9.736;2022-12-29T15:36:10;5.13;;;1.63;;
30647;SDS011;17683;53.360;9.736;2022-12-29T15:38:38;5.78;;;1.42;;
30647;SDS011;17683;53.360;9.736;2022-12-29T15:41:05;8.27;;;1.55;;
30647;SDS011;17683;53.360;9.736;2022-12-29T15:46:20;8.57;;;1.77;;
30647;SDS011;17683;53.360;9.736;2022-12-29T15:48:46;9.23;;;1.70;;
30647;SDS011;17683;53.360;9.736;2022-12-29T15:51:19;6.00;;;1.15;;
30647;SDS011;17683;53.360;9.736;2022-12-29T15:54:00;8.20;;;2.28;;
30647;SDS011;17683;53.360;9.736;2022-12-29T15:56:28;5.85;;;1.48;;
30647;SDS011;17683;53.360;9.736;2022-12-29T15:58:54;12.45;;;2.10;;
30647;SDS011;17683;53.360;9.736;2022-12-29T16:03:54;7.78;;;1.85;;
30647;SDS011;17683;53.360;9.736;2022-12-29T16:06:30;9.52;;;1.98;;
30647;SDS011;17683;53.360;9.736;2022-12-29T16:09:28;5.57;;;1.40;;
30647;SDS011;17683;53.360;9.736;2022-12-29T16:12:06;9.93;;;1.70;;
30647;SDS011;17683;53.360;9.736;2022-12-29T16:14:49;7.32;;;2.17;;
30647;SDS011;17683;53.360;9.736;2022-12-29T16:17:24;7.47;;;2.58;;
30647;SDS011;17683;53.360;9.736;2022-12-29T16:22:39;5.15;;;1.60;;
30647;SDS011;17683;53.360;9.736;2022-12-29T16:25:11;10.45;;;2.72;;
30647;SDS011;17683;53.360;9.736;2022-12-29T16:27:44;8.07;;;2.10;;
30647;SDS011;17683;53.360;9.736;2022-12-29T16:32:53;9.98;;;2.22;;
30647;SDS011;17683;53.360;9.736;2022-12-29T16:40:55;5.97;;;1.92;;
30647;SDS011;17683;53.360;9.736;2022-12-29T16:43:25;9.63;;;2.88;;
30647;SDS011;17683;53.360;9.736;2022-12-29T16:48:28;7.82;;;1.65;;
30647;SDS011;17683;53.360;9.736;2022-12-29T16:51:00;6.82;;;1.85;;
30647;SDS011;17683;53.360;9.736;2022-12-29T16:53:39;7.15;;;1.77;;
30647;SDS011;17683;53.360;9.736;2022-12-29T16:56:17;9.35;;;2.17;;
30647;SDS011;17683;53.360;9.736;2022-12-29T16:58:50;7.35;;;2.22;;
30647;SDS011;17683;53.360;9.736;2022-12-29T17:01:20;5.70;;;1.80;;
30647;SDS011;17683;53.360;9.736;2022-12-29T17:03:51;6.90;;;2.20;;
30647;SDS011;17683;53.360;9.736;2022-12-29T17:06:20;6.05;;;1.90;;
30647;SDS011;17683;53.360;9.736;2022-12-29T17:08:47;6.35;;;1.55;;
30647;SDS011;17683;53.360;9.736;2022-12-29T17:11:26;8.40;;;1.80;;
30647;SDS011;17683;53.360;9.736;2022-12-29T17:19:44;6.78;;;1.48;;
30647;SDS011;17683;53.360;9.736;2022-12-29T17:22:17;6.95;;;2.10;;
30647;SDS011;17683;53.360;9.736;2022-12-29T17:24:50;11.82;;;2.92;;
30647;SDS011;17683;53.360;9.736;2022-12-29T17:30:05;7.72;;;2.55;;
30647;SDS011;17683;53.360;9.736;2022-12-29T17:32:42;8.35;;;2.40;;
30647;SDS011;17683;53.360;9.736;2022-12-29T17:35:13;7.03;;;2.88;;
30647;SDS011;17683;53.360;9.736;2022-12-29T17:37:39;11.07;;;2.47;;
30647;SDS011;17683;53.360;9.736;2022-12-29T17:40:06;9.70;;;2.28;;
30647;SDS011;17683;53.360;9.736;2022-12-29T17:42:36;8.55;;;2.40;;
30647;SDS011;17683;53.360;9.736;2022-12-29T17:45:11;8.10;;;2.10;;
30647;SDS011;17683;53.360;9.736;2022-12-29T17:47:42;6.82;;;2.15;;
30647;SDS011;17683;53.360;9.736;2022-12-29T17:50:18;10.68;;;2.13;;
30647;SDS011;17683;53.360;9.736;2022-12-29T17:52:51;7.38;;;2.42;;
30647;SDS011;17683;53.360;9.736;2022-12-29T17:55:20;9.23;;;2.50;;
30647;SDS011;17683;53.360;9.736;2022-12-29T17:57:47;12.48;;;2.63;;
30647;SDS011;17683;53.360;9.736;2022-12-29T18:00:13;12.68;;;3.05;;
30647;SDS011;17683;53.360;9.736;2022-12-29T18:02:44;11.23;;;2.10;;
30647;SDS011;17683;53.360;9.736;2022-12-29T18:05:17;11.15;;;2.83;;
30647;SDS011;17683;53.360;9.736;2022-12-29T18:07:45;8.70;;;2.65;;
30647;SDS011;17683;53.360;9.736;2022-12-29T18:10:12;9.70;;;2.30;;
30647;SDS011;17683;53.360;9.736;2022-12-29T18:12:39;8.93;;;4.57;;
30647;SDS011;17683;53.360;9.736;2022-12-29T18:15:16;8.27;;;2.70;;
30647;SDS011;17683;53.360;9.736;2022-12-29T18:17:45;15.50;;;3.67;;
30647;SDS011;17683;53.360;9.736;2022-12-29T18:20:11;17.10;;;4.18;;
30647;SDS011;17683;53.360;9.736;2022-12-29T18:22:37;10.10;;;2.92;;
30647;SDS011;17683;53.360;9.736;2022-12-29T18:25:12;11.63;;;3.85;;